createdAt,value
2023-05-19T00:00:50.490Z,9.418234
2023-05-19T00:01:48.200Z,9.418249
2023-05-19T00:02:48.351Z,9.418246
2023-05-19T00:03:48.158Z,9.418299
2023-05-19T00:04:48.172Z,9.418285
2023-05-19T00:05:48.596Z,9.418305
2023-05-19T00:06:48.176Z,9.418247
2023-05-19T00:07:48.144Z,9.418202
2023-05-19T00:08:48.124Z,9.418278
2023-05-19T00:09:48.115Z,9.418248
2023-05-19T00:10:48.128Z,9.418215
2023-05-19T00:11:48.113Z,9.418274
2023-05-19T00:12:48.194Z,9.418265
2023-05-19T00:13:48.110Z,9.418230
2023-05-19T00:14:48.090Z,9.418217
2023-05-19T00:15:48.138Z,9.418263
2023-05-19T00:16:48.063Z,9.418238
2023-05-19T00:17:48.092Z,9.418222
2023-05-19T00:18:48.065Z,9.418213
2023-05-19T00:19:48.160Z,9.418246
2023-05-19T00:20:48.043Z,9.418207
2023-05-19T00:21:48.067Z,9.418271
2023-05-19T00:22:48.038Z,9.418255
2023-05-19T00:23:48.017Z,9.418255
2023-05-19T00:24:48.012Z,9.418234
2023-05-19T00:25:48.015Z,9.418229
2023-05-19T00:26:48.004Z,9.418232
2023-05-19T00:27:47.999Z,9.418209
2023-05-19T00:28:47.975Z,9.418287
2023-05-19T00:29:47.997Z,9.418269
2023-05-19T00:30:47.963Z,9.418286
2023-05-19T00:31:48.017Z,9.418296
2023-05-19T00:32:48.003Z,9.418238
2023-05-19T00:33:47.948Z,9.418221
2023-05-19T00:34:47.956Z,9.418243
2023-05-19T00:35:48.108Z,9.418265
2023-05-19T00:36:47.934Z,9.418226
2023-05-19T00:37:47.922Z,9.418186
2023-05-19T00:38:47.912Z,9.418242
2023-05-19T00:39:47.912Z,9.418236
2023-05-19T00:40:47.935Z,9.418243
2023-05-19T00:41:47.895Z,9.418267
2023-05-19T00:42:47.901Z,9.418324
2023-05-19T00:43:47.874Z,9.418159
2023-05-19T00:44:47.876Z,9.418143
2023-05-19T00:45:47.862Z,9.418189
2023-05-19T00:46:47.946Z,9.418148
2023-05-19T00:47:47.872Z,9.418146
2023-05-19T00:48:47.845Z,9.418161
2023-05-19T00:49:47.840Z,9.418183
2023-05-19T00:50:47.846Z,9.418153
2023-05-19T00:51:47.848Z,9.418331
2023-05-19T00:52:47.814Z,9.418104
2023-05-19T00:53:47.803Z,9.418116
2023-05-19T00:54:47.810Z,9.418227
2023-05-19T00:55:47.800Z,9.418248
2023-05-19T00:56:47.801Z,9.418283
2023-05-19T00:57:47.791Z,9.418316
2023-05-19T00:58:47.783Z,9.418342
2023-05-19T00:59:47.764Z,9.418268
2023-05-19T01:00:47.758Z,9.418186
2023-05-19T01:01:47.747Z,9.418242
2023-05-19T01:02:47.845Z,9.418213
2023-05-19T01:03:47.808Z,9.418210
2023-05-19T01:04:47.734Z,9.418177
2023-05-19T01:05:47.713Z,9.418209
2023-05-19T01:06:47.720Z,9.418196
2023-05-19T01:07:47.721Z,9.418273
2023-05-19T01:08:47.717Z,9.418176
2023-05-19T01:09:47.692Z,9.418305
2023-05-19T01:10:47.686Z,9.418279
2023-05-19T01:11:47.681Z,9.418326
2023-05-19T01:12:47.664Z,9.418353
2023-05-19T01:13:47.690Z,9.418341
2023-05-19T01:14:47.662Z,9.418116
2023-05-19T01:15:47.649Z,9.418114
2023-05-19T01:16:47.717Z,9.418033
2023-05-19T01:17:47.700Z,9.418088
2023-05-19T01:18:47.724Z,9.418233
2023-05-19T01:19:47.622Z,9.418310
2023-05-19T01:20:47.616Z,9.418276
2023-05-19T01:21:47.609Z,9.418180
2023-05-19T01:22:47.622Z,9.417883
2023-05-19T01:23:48.593Z,9.418068
2023-05-19T01:24:47.583Z,9.418034
2023-05-19T01:25:47.576Z,9.418158
2023-05-19T01:26:47.575Z,9.418043
2023-05-19T01:27:47.617Z,9.418196
2023-05-19T01:28:48.556Z,9.418312
2023-05-19T01:29:47.557Z,9.418236
2023-05-19T01:30:47.557Z,9.418261
2023-05-19T01:31:47.588Z,9.418239
2023-05-19T01:32:47.559Z,9.418188
2023-05-19T01:33:47.555Z,9.418246
2023-05-19T01:34:47.533Z,9.418183
2023-05-19T01:35:47.520Z,9.418135
2023-05-19T01:36:47.513Z,9.418271
2023-05-19T01:37:47.497Z,9.418255
2023-05-19T01:38:47.517Z,9.418313
2023-05-19T01:39:47.513Z,9.418199
2023-05-19T01:40:47.484Z,9.418143
2023-05-19T01:41:47.494Z,9.418314
2023-05-19T01:42:47.467Z,9.418283
2023-05-19T01:43:48.537Z,9.418154
2023-05-19T01:44:47.465Z,9.417968
2023-05-19T01:45:47.473Z,9.418083
2023-05-19T01:46:47.519Z,9.418179
2023-05-19T01:47:47.496Z,9.418286
2023-05-19T01:48:47.436Z,9.418292
2023-05-19T01:49:47.451Z,9.418282
2023-05-19T01:50:47.417Z,9.418281
2023-05-19T01:51:47.419Z,9.418269
2023-05-19T01:52:47.418Z,9.418284
2023-05-19T01:53:47.398Z,9.418357
2023-05-19T01:54:47.412Z,9.418327
2023-05-19T01:55:47.391Z,9.418215
2023-05-19T01:56:47.398Z,9.418305
2023-05-19T01:57:47.378Z,9.418365
2023-05-19T01:58:47.387Z,9.418303
2023-05-19T01:59:47.374Z,9.418309
2023-05-19T02:00:47.377Z,9.418356
2023-05-19T02:01:47.418Z,9.418495
2023-05-19T02:02:47.384Z,9.418368
2023-05-19T02:03:47.329Z,9.418431
2023-05-19T02:04:47.348Z,9.418362
2023-05-19T02:05:47.328Z,9.418321
2023-05-19T02:06:47.318Z,9.418372
2023-05-19T02:07:47.303Z,9.418469
2023-05-19T02:08:47.304Z,9.418390
2023-05-19T02:09:47.280Z,9.418431
2023-05-19T02:10:47.293Z,9.418369
2023-05-19T02:11:47.278Z,9.418431
2023-05-19T02:12:47.258Z,9.418344
2023-05-19T02:13:48.272Z,9.418338
2023-05-19T02:14:47.256Z,9.418415
2023-05-19T02:15:47.298Z,9.418399
2023-05-19T02:16:47.250Z,9.418293
2023-05-19T02:17:47.348Z,9.418344
2023-05-19T02:18:47.285Z,9.418285
2023-05-19T02:19:47.238Z,9.418316
2023-05-19T02:20:47.230Z,9.418383
2023-05-19T02:21:47.209Z,9.418381
2023-05-19T02:22:47.197Z,9.418277
2023-05-19T02:23:47.189Z,9.418245
2023-05-19T02:24:47.179Z,9.418275
2023-05-19T02:25:47.170Z,9.418369
2023-05-19T02:26:47.198Z,9.418315
2023-05-19T02:27:47.167Z,9.418295
2023-05-19T02:28:47.160Z,9.418259
2023-05-19T02:29:47.150Z,9.418226
2023-05-19T02:30:47.149Z,9.418259
2023-05-19T02:31:47.175Z,9.418249
2023-05-19T02:32:47.287Z,9.418257
2023-05-19T02:33:47.121Z,9.418296
2023-05-19T02:34:47.119Z,9.418282
2023-05-19T02:35:47.106Z,9.418253
2023-05-19T02:36:47.115Z,9.418283
2023-05-19T02:37:47.110Z,9.418358
2023-05-19T02:38:47.084Z,9.418317
2023-05-19T02:39:47.101Z,9.418347
2023-05-19T02:40:47.086Z,9.418296
2023-05-19T02:41:47.071Z,9.418314
2023-05-19T02:42:47.085Z,9.418325
2023-05-19T02:43:47.050Z,9.418262
2023-05-19T02:44:47.049Z,9.418225
2023-05-19T02:45:47.048Z,9.418283
2023-05-19T02:46:47.170Z,9.418271
2023-05-19T02:47:47.069Z,9.418333
2023-05-19T02:48:47.026Z,9.418273
2023-05-19T02:49:47.009Z,9.418267
2023-05-19T02:50:48.001Z,9.418240
2023-05-19T02:51:47.007Z,9.418231
2023-05-19T02:52:46.987Z,9.418255
2023-05-19T02:53:46.978Z,9.418312
2023-05-19T02:54:46.971Z,9.418298
2023-05-19T02:55:46.983Z,9.418277
2023-05-19T02:56:46.965Z,9.418254
2023-05-19T02:57:46.953Z,9.418249
2023-05-19T02:58:46.950Z,9.418352
2023-05-19T02:59:46.949Z,9.418302
2023-05-19T03:00:46.957Z,9.418202
2023-05-19T03:01:46.944Z,9.418203
2023-05-19T03:02:47.006Z,9.418237
2023-05-19T03:03:47.049Z,9.418195
2023-05-19T03:04:46.905Z,9.418245
2023-05-19T03:05:46.906Z,9.418232
2023-05-19T03:06:46.915Z,9.418239
2023-05-19T03:07:46.885Z,9.418245
2023-05-19T03:08:46.885Z,9.418228
2023-05-19T03:09:46.869Z,9.418177
2023-05-19T03:10:46.867Z,9.418237
2023-05-19T03:11:46.868Z,9.418217
2023-05-19T03:12:46.860Z,9.418260
2023-05-19T03:13:46.855Z,9.418267
2023-05-19T03:14:46.850Z,9.418206
2023-05-19T03:15:46.836Z,9.418227
2023-05-19T03:16:46.985Z,9.418257
2023-05-19T03:17:46.932Z,9.418283
2023-05-19T03:18:46.852Z,9.418253
2023-05-19T03:19:46.810Z,9.418235
2023-05-19T03:20:46.793Z,9.418198
2023-05-19T03:21:46.820Z,9.418224
2023-05-19T03:22:46.794Z,9.418231
2023-05-19T03:23:46.779Z,9.418235
2023-05-19T03:24:46.783Z,9.418228
2023-05-19T03:25:46.778Z,9.418152
2023-05-19T03:26:46.777Z,9.418218
2023-05-19T03:27:46.759Z,9.418213
2023-05-19T03:28:46.751Z,9.418238
2023-05-19T03:29:46.751Z,9.418214
2023-05-19T03:30:46.732Z,9.418224
2023-05-19T03:31:46.726Z,9.418221
2023-05-19T03:32:46.824Z,9.418239
2023-05-19T03:33:46.708Z,9.418191
2023-05-19T03:34:46.704Z,9.418165
2023-05-19T03:35:46.742Z,9.418238
2023-05-19T03:36:46.701Z,9.418184
2023-05-19T03:37:46.708Z,9.418213
2023-05-19T03:38:46.690Z,9.418213
2023-05-19T03:39:46.698Z,9.418194
2023-05-19T03:40:46.695Z,9.418173
2023-05-19T03:41:46.688Z,9.418218
2023-05-19T03:42:46.657Z,9.418251
2023-05-19T03:43:46.653Z,9.418282
2023-05-19T03:44:46.641Z,9.418248
2023-05-19T03:45:46.694Z,9.418297
2023-05-19T03:46:46.640Z,9.418257
2023-05-19T03:47:46.796Z,9.418329
2023-05-19T03:48:46.617Z,9.418313
2023-05-19T03:49:46.611Z,9.418244
2023-05-19T03:50:46.605Z,9.418188
2023-05-19T03:51:46.772Z,9.418215
2023-05-19T03:52:46.654Z,9.418232
2023-05-19T03:53:46.589Z,9.418149
2023-05-19T03:54:46.613Z,9.418109
2023-05-19T03:55:46.571Z,9.418169
2023-05-19T03:56:46.573Z,9.418242
2023-05-19T03:57:46.565Z,9.418251
2023-05-19T03:58:46.548Z,9.418215
2023-05-19T03:59:46.701Z,9.418220
2023-05-19T04:00:46.540Z,9.418114
2023-05-19T04:01:46.534Z,9.418202
2023-05-19T04:02:46.625Z,9.418342
2023-05-19T04:03:46.651Z,9.418319
2023-05-19T04:04:46.609Z,9.418283
2023-05-19T04:05:46.569Z,9.418173
2023-05-19T04:06:46.505Z,9.418100
2023-05-19T04:07:46.507Z,9.418112
2023-05-19T04:08:46.495Z,9.418061
2023-05-19T04:09:46.506Z,9.418069
2023-05-19T04:10:46.498Z,9.418191
2023-05-19T04:11:46.475Z,9.418131
2023-05-19T04:12:46.458Z,9.418059
2023-05-19T04:13:46.459Z,9.418220
2023-05-19T04:14:46.482Z,9.418327
2023-05-19T04:15:46.481Z,9.418281
2023-05-19T04:16:46.440Z,9.418155
2023-05-19T04:17:46.496Z,9.418078
2023-05-19T04:18:46.657Z,9.418077
2023-05-19T04:19:46.436Z,9.418214
2023-05-19T04:20:46.429Z,9.418125
2023-05-19T04:21:46.417Z,9.418179
2023-05-19T04:22:46.405Z,9.418062
2023-05-19T04:23:46.439Z,9.418134
2023-05-19T04:24:46.387Z,9.418195
2023-05-19T04:25:46.391Z,9.418111
2023-05-19T04:26:46.382Z,9.418206
2023-05-19T04:27:46.371Z,9.418015
2023-05-19T04:28:46.372Z,9.418016
2023-05-19T04:29:46.360Z,9.418009
2023-05-19T04:30:46.463Z,9.417982
2023-05-19T04:31:46.388Z,9.417801
2023-05-19T04:32:46.361Z,9.417854
2023-05-19T04:33:46.336Z,9.417893
2023-05-19T04:34:46.360Z,9.417995
2023-05-19T04:35:46.346Z,9.418050
2023-05-19T04:36:46.321Z,9.418060
2023-05-19T04:37:46.316Z,9.418130
2023-05-19T04:38:46.303Z,9.418262
2023-05-19T04:39:46.293Z,9.418219
2023-05-19T04:40:46.312Z,9.418504
2023-05-19T04:41:46.276Z,9.418421
2023-05-19T04:42:46.295Z,9.418647
2023-05-19T04:43:46.276Z,9.418471
2023-05-19T04:44:46.277Z,9.418349
2023-05-19T04:45:46.252Z,9.418325
2023-05-19T04:46:46.286Z,9.418291
2023-05-19T04:47:46.279Z,9.418243
2023-05-19T04:48:46.233Z,9.418139
2023-05-19T04:49:46.223Z,9.418215
2023-05-19T04:50:46.216Z,9.418291
2023-05-19T04:51:46.256Z,9.418251
2023-05-19T04:52:46.221Z,9.418111
2023-05-19T04:53:46.214Z,9.417865
2023-05-19T04:54:46.200Z,9.418242
2023-05-19T04:55:46.199Z,9.418211
2023-05-19T04:56:46.194Z,9.418346
2023-05-19T04:57:46.199Z,9.418280
2023-05-19T04:58:46.189Z,9.418201
2023-05-19T04:59:46.168Z,9.418130
2023-05-19T05:00:46.156Z,9.418256
2023-05-19T05:01:46.214Z,9.418307
2023-05-19T05:02:46.259Z,9.418343
2023-05-19T05:03:46.245Z,9.418254
2023-05-19T05:04:46.125Z,9.418228
2023-05-19T05:05:46.132Z,9.418212
2023-05-19T05:06:46.109Z,9.418270
2023-05-19T05:07:46.117Z,9.418279
2023-05-19T05:08:46.127Z,9.418161
2023-05-19T05:09:46.100Z,9.418254
2023-05-19T05:10:46.090Z,9.418242
2023-05-19T05:11:46.092Z,9.418448
2023-05-19T05:12:46.084Z,9.418345
2023-05-19T05:13:46.076Z,9.418305
2023-05-19T05:14:46.117Z,9.418323
2023-05-19T05:15:46.055Z,9.418181
2023-05-19T05:16:46.120Z,9.418197
2023-05-19T05:17:46.071Z,9.418246
2023-05-19T05:18:46.061Z,9.418243
2023-05-19T05:19:46.051Z,9.418244
2023-05-19T05:20:46.019Z,9.418230
2023-05-19T05:21:46.019Z,9.418182
2023-05-19T05:22:46.008Z,9.418233
2023-05-19T05:23:46.017Z,9.418221
2023-05-19T05:24:46.006Z,9.418220
2023-05-19T05:25:45.989Z,9.418242
2023-05-19T05:26:45.989Z,9.418264
2023-05-19T05:27:45.975Z,9.418248
2023-05-19T05:28:45.972Z,9.418250
2023-05-19T05:29:45.957Z,9.418218
2023-05-19T05:30:46.005Z,9.418220
2023-05-19T05:31:45.953Z,9.418242
2023-05-19T05:32:45.996Z,9.418234
2023-05-19T05:33:45.998Z,9.418211
2023-05-19T05:34:45.952Z,9.418189
2023-05-19T05:35:45.932Z,9.418221
2023-05-19T05:36:45.909Z,9.418222
2023-05-19T05:37:45.924Z,9.418242
2023-05-19T05:38:45.906Z,9.418238
2023-05-19T05:39:45.900Z,9.418191
2023-05-19T05:40:45.889Z,9.418198
2023-05-19T05:41:45.878Z,9.418223
2023-05-19T05:42:45.882Z,9.418238
2023-05-19T05:43:45.881Z,9.418251
2023-05-19T05:44:45.854Z,9.418231
2023-05-19T05:45:45.863Z,9.418253
2023-05-19T05:46:45.858Z,9.418273
2023-05-19T05:47:45.916Z,9.418243
2023-05-19T05:48:45.836Z,9.418271
2023-05-19T05:49:45.819Z,9.418262
2023-05-19T05:50:45.849Z,9.418237
2023-05-19T05:51:54.712Z,9.418266
2023-05-19T05:52:47.812Z,9.418289
2023-05-19T05:53:45.804Z,9.418260
2023-05-19T05:54:45.791Z,9.418237
2023-05-19T05:55:45.804Z,9.418265
2023-05-19T05:56:45.785Z,9.418312
2023-05-19T05:57:45.774Z,9.418230
2023-05-19T05:58:45.793Z,9.418279
2023-05-19T05:59:45.769Z,9.418272
2023-05-19T06:00:45.778Z,9.418218
2023-05-19T06:01:45.756Z,9.418183
2023-05-19T06:02:45.848Z,9.418208
2023-05-19T06:03:46.002Z,9.418237
2023-05-19T06:04:45.723Z,9.418246
2023-05-19T06:05:45.814Z,9.418209
2023-05-19T06:06:45.723Z,9.418193
2023-05-19T06:07:45.712Z,9.418200
2023-05-19T06:08:45.730Z,9.418271
2023-05-19T06:09:45.684Z,9.418293
2023-05-19T06:10:47.376Z,9.418250
2023-05-19T06:11:46.702Z,9.418283
2023-05-19T06:12:45.683Z,9.418206
2023-05-19T06:13:46.475Z,9.418325
2023-05-19T06:14:45.709Z,9.418255
2023-05-19T06:15:45.914Z,9.418273
2023-05-19T06:16:45.675Z,9.418305
2023-05-19T06:17:45.689Z,9.418285
2023-05-19T06:18:45.886Z,9.418220
2023-05-19T06:19:45.623Z,9.418206
2023-05-19T06:20:45.625Z,9.418235
2023-05-19T06:21:45.627Z,9.418262
2023-05-19T06:22:45.605Z,9.418201
2023-05-19T06:23:45.628Z,9.418257
2023-05-19T06:24:45.617Z,9.418238
2023-05-19T06:25:46.488Z,9.418185
2023-05-19T06:26:45.616Z,9.418218
2023-05-19T06:27:45.584Z,9.418201
2023-05-19T06:28:46.475Z,9.418251
2023-05-19T06:29:45.581Z,9.418304
2023-05-19T06:30:45.550Z,9.418311
2023-05-19T06:31:45.570Z,9.418199
2023-05-19T06:32:45.613Z,9.418153
2023-05-19T06:33:45.552Z,9.418125
2023-05-19T06:34:45.537Z,9.418102
2023-05-19T06:35:45.557Z,9.418235
2023-05-19T06:36:45.521Z,9.418264
2023-05-19T06:37:45.516Z,9.418302
2023-05-19T06:38:45.521Z,9.418261
2023-05-19T06:39:45.490Z,9.418291
2023-05-19T06:40:45.514Z,9.418282
2023-05-19T06:41:45.473Z,9.418292
2023-05-19T06:42:45.491Z,9.418217
2023-05-19T06:43:45.494Z,9.418277
2023-05-19T06:44:45.477Z,9.418271
2023-05-19T06:45:45.449Z,9.418395
2023-05-19T06:46:45.524Z,9.418328
2023-05-19T06:47:45.502Z,9.418175
2023-05-19T06:48:45.445Z,9.418245
2023-05-19T06:49:45.431Z,9.418238
2023-05-19T06:50:46.437Z,9.418254
2023-05-19T06:51:45.427Z,9.418095
2023-05-19T06:52:45.415Z,9.418196
2023-05-19T06:53:45.417Z,9.418348
2023-05-19T06:54:45.413Z,9.418278
2023-05-19T06:55:57.899Z,9.418326
2023-05-19T06:56:47.378Z,9.418366
2023-05-19T06:57:45.375Z,9.418272
2023-05-19T06:58:45.396Z,9.418273
2023-05-19T06:59:45.361Z,9.418271
2023-05-19T07:00:45.349Z,9.418401
2023-05-19T07:01:45.391Z,9.418180
2023-05-19T07:02:45.393Z,9.418200
2023-05-19T07:03:45.398Z,9.418244
2023-05-19T07:04:45.321Z,9.418329
2023-05-19T07:05:45.328Z,9.418340
2023-05-19T07:06:45.332Z,9.418284
2023-05-19T07:07:45.301Z,9.418280
2023-05-19T07:08:45.311Z,9.418135
2023-05-19T07:09:45.289Z,9.418167
2023-05-19T07:10:45.300Z,9.418226
2023-05-19T07:11:45.269Z,9.418243
2023-05-19T07:12:46.280Z,9.418240
2023-05-19T07:13:45.280Z,9.418212
2023-05-19T07:14:45.268Z,9.418259
2023-05-19T07:15:45.282Z,9.418182
2023-05-19T07:16:45.302Z,9.418445
2023-05-19T07:17:45.296Z,9.418316
2023-05-19T07:18:45.258Z,9.418243
2023-05-19T07:19:45.252Z,9.418307
2023-05-19T07:20:45.232Z,9.418113
2023-05-19T07:21:45.213Z,9.418187
2023-05-19T07:22:45.220Z,9.418212
2023-05-19T07:23:45.202Z,9.418296
2023-05-19T07:24:45.218Z,9.418306
2023-05-19T07:25:45.201Z,9.418305
2023-05-19T07:26:45.173Z,9.418176
2023-05-19T07:27:46.169Z,9.418186
2023-05-19T07:28:45.186Z,9.418285
2023-05-19T07:29:45.161Z,9.418279
2023-05-19T07:30:45.181Z,9.418352
2023-05-19T07:31:45.149Z,9.418268
2023-05-19T07:32:45.217Z,9.418385
2023-05-19T07:33:45.140Z,9.418349
2023-05-19T07:34:45.122Z,9.418312
2023-05-19T07:35:45.137Z,9.418401
2023-05-19T07:36:45.112Z,9.418285
2023-05-19T07:37:45.107Z,9.418326
2023-05-19T07:38:45.137Z,9.418258
2023-05-19T07:39:45.104Z,9.418318
2023-05-19T07:40:45.084Z,9.418243
2023-05-19T07:41:45.094Z,9.418218
2023-05-19T07:42:45.083Z,9.418283
2023-05-19T07:43:45.071Z,9.418370
2023-05-19T07:44:45.058Z,9.418511
2023-05-19T07:45:45.063Z,9.418388
2023-05-19T07:46:45.050Z,9.418386
2023-05-19T07:47:45.046Z,9.418210
2023-05-19T07:48:45.037Z,9.418208
2023-05-19T07:49:45.031Z,9.418298
2023-05-19T07:50:45.010Z,9.418308
2023-05-19T07:51:45.018Z,9.418348
2023-05-19T07:52:44.999Z,9.418296
2023-05-19T07:53:45.004Z,9.418174
2023-05-19T07:54:45.005Z,9.418263
2023-05-19T07:55:44.995Z,9.418309
2023-05-19T07:56:44.969Z,9.418278
2023-05-19T07:57:44.987Z,9.418327
2023-05-19T07:58:45.957Z,9.418311
2023-05-19T07:59:44.974Z,9.418301
2023-05-19T08:00:44.949Z,9.418271
2023-05-19T08:01:44.942Z,9.418300
2023-05-19T08:02:45.044Z,9.418280
2023-05-19T08:03:45.002Z,9.418304
2023-05-19T08:04:44.982Z,9.418299
2023-05-19T08:05:44.932Z,9.418308
2023-05-19T08:06:44.909Z,9.418306
2023-05-19T08:07:44.907Z,9.418300
2023-05-19T08:08:44.893Z,9.418216
2023-05-19T08:09:44.878Z,9.418305
2023-05-19T08:10:44.911Z,9.418269
2023-05-19T08:11:44.888Z,9.418260
2023-05-19T08:12:44.857Z,9.418262
2023-05-19T08:13:44.858Z,9.418296
2023-05-19T08:14:44.864Z,9.418267
2023-05-19T08:15:44.944Z,9.418386
2023-05-19T08:16:44.850Z,9.418372
2023-05-19T08:17:44.868Z,9.418385
2023-05-19T08:18:44.891Z,9.418363
2023-05-19T08:19:44.820Z,9.418365
2023-05-19T08:20:44.816Z,9.418345
2023-05-19T08:21:44.843Z,9.418263
2023-05-19T08:22:44.806Z,9.418268
2023-05-19T08:23:44.804Z,9.418286
2023-05-19T08:24:44.837Z,9.418287
2023-05-19T08:25:44.794Z,9.418361
2023-05-19T08:26:44.854Z,9.418352
2023-05-19T08:27:44.773Z,9.418285
2023-05-19T08:28:44.768Z,9.418303
2023-05-19T08:29:44.753Z,9.418260
2023-05-19T08:30:44.768Z,9.418240
2023-05-19T08:31:44.776Z,9.418248
2023-05-19T08:32:44.752Z,9.418238
2023-05-19T08:33:44.727Z,9.418268
2023-05-19T08:34:44.751Z,9.418220
2023-05-19T08:35:44.757Z,9.418224
2023-05-19T08:36:44.715Z,9.418236
2023-05-19T08:37:44.744Z,9.418212
2023-05-19T08:38:44.698Z,9.418226
2023-05-19T08:39:44.689Z,9.418185
2023-05-19T08:40:44.697Z,9.418085
2023-05-19T08:41:44.679Z,9.418208
2023-05-19T08:42:44.700Z,9.418113
2023-05-19T08:43:44.676Z,9.418357
2023-05-19T08:44:44.657Z,9.418313
2023-05-19T08:45:44.657Z,9.418239
2023-05-19T08:46:44.743Z,9.418220
2023-05-19T08:47:44.684Z,9.418162
2023-05-19T08:48:44.640Z,9.418211
2023-05-19T08:49:44.654Z,9.418107
2023-05-19T08:50:44.628Z,9.418143
2023-05-19T08:51:44.616Z,9.418077
2023-05-19T08:52:46.829Z,9.418285
2023-05-19T08:53:44.607Z,9.418306
2023-05-19T08:54:44.629Z,9.418328
2023-05-19T08:55:44.595Z,9.418252
2023-05-19T08:56:44.623Z,9.418258
2023-05-19T08:57:44.568Z,9.418303
2023-05-19T08:58:44.569Z,9.418244
2023-05-19T08:59:44.586Z,9.418133
2023-05-19T09:00:44.576Z,9.418213
2023-05-19T09:01:44.572Z,9.418281
2023-05-19T09:02:55.034Z,9.418221
2023-05-19T09:03:46.643Z,9.418140
2023-05-19T09:04:44.640Z,9.418203
2023-05-19T09:05:44.602Z,9.418183
2023-05-19T09:06:44.539Z,9.418158
2023-05-19T09:07:44.524Z,9.418169
2023-05-19T09:08:44.516Z,9.418160
2023-05-19T09:09:44.958Z,9.418244
2023-05-19T09:10:44.512Z,9.418232
2023-05-19T09:11:44.498Z,9.418229
2023-05-19T09:12:44.484Z,9.418242
2023-05-19T09:13:44.483Z,9.418188
2023-05-19T09:14:44.475Z,9.418198
2023-05-19T09:15:44.480Z,9.418164
2023-05-19T09:16:44.504Z,9.418075
2023-05-19T09:17:44.552Z,9.417982
2023-05-19T09:18:44.507Z,9.417959
2023-05-19T09:19:44.448Z,9.417994
2023-05-19T09:20:44.462Z,9.417910
2023-05-19T09:21:44.690Z,9.417996
2023-05-19T09:22:45.434Z,9.417925
2023-05-19T09:23:44.420Z,9.418151
2023-05-19T09:24:44.414Z,9.418483
2023-05-19T09:25:44.416Z,9.418457
2023-05-19T09:26:44.400Z,9.418317
2023-05-19T09:27:45.404Z,9.418253
2023-05-19T09:28:44.394Z,9.418240
2023-05-19T09:29:44.404Z,9.418189
2023-05-19T09:30:44.377Z,9.418247
2023-05-19T09:31:44.428Z,9.418242
2023-05-19T09:32:44.731Z,9.418258
2023-05-19T09:33:46.012Z,9.418244
2023-05-19T09:34:45.346Z,9.418262
2023-05-19T09:35:44.366Z,9.418224
2023-05-19T09:36:44.358Z,9.418229
2023-05-19T09:37:44.327Z,9.418253
2023-05-19T09:38:44.342Z,9.418262
2023-05-19T09:39:44.349Z,9.418339
2023-05-19T09:40:44.318Z,9.418236
2023-05-19T09:41:44.338Z,9.418300
2023-05-19T09:42:44.325Z,9.418144
2023-05-19T09:43:44.313Z,9.418327
2023-05-19T09:44:44.299Z,9.418221
2023-05-19T09:45:44.334Z,9.418248
2023-05-19T09:46:44.515Z,9.418327
2023-05-19T09:47:44.330Z,9.418263
2023-05-19T09:48:44.270Z,9.418350
2023-05-19T09:49:44.263Z,9.418322
2023-05-19T09:50:44.260Z,9.418324
2023-05-19T09:51:44.253Z,9.418281
2023-05-19T09:52:44.255Z,9.418265
2023-05-19T09:53:44.221Z,9.418264
2023-05-19T09:54:44.263Z,9.418369
2023-05-19T09:55:44.240Z,9.418633
2023-05-19T09:56:44.214Z,9.418369
2023-05-19T09:57:44.314Z,9.418279
2023-05-19T09:58:44.206Z,9.418159
2023-05-19T09:59:44.214Z,9.418283
2023-05-19T10:00:44.215Z,9.418324
2023-05-19T10:01:44.292Z,9.418443
2023-05-19T10:02:44.343Z,9.418604
2023-05-19T10:03:44.185Z,9.418503
2023-05-19T10:04:44.252Z,9.418386
2023-05-19T10:05:44.164Z,9.418363
2023-05-19T10:06:44.165Z,9.418294
2023-05-19T10:07:44.144Z,9.418376
2023-05-19T10:08:44.176Z,9.418262
2023-05-19T10:09:44.150Z,9.418339
2023-05-19T10:10:44.146Z,9.418351
2023-05-19T10:11:44.151Z,9.418261
2023-05-19T10:12:44.121Z,9.418259
2023-05-19T10:13:44.116Z,9.418204
2023-05-19T10:14:44.105Z,9.418181
2023-05-19T10:15:57.337Z,9.418168
2023-05-19T10:16:46.112Z,9.418266
2023-05-19T10:17:44.132Z,9.418330
2023-05-19T10:18:44.105Z,9.418366
2023-05-19T10:19:44.069Z,9.418364
2023-05-19T10:20:44.069Z,9.418260
2023-05-19T10:21:44.066Z,9.418273
2023-05-19T10:22:44.074Z,9.418193
2023-05-19T10:23:44.081Z,9.418253
2023-05-19T10:24:44.044Z,9.418265
2023-05-19T10:25:44.038Z,9.418206
2023-05-19T10:26:44.033Z,9.418289
2023-05-19T10:27:44.084Z,9.418263
2023-05-19T10:28:44.053Z,9.418324
2023-05-19T10:29:44.016Z,9.418252
2023-05-19T10:30:44.002Z,9.418249
2023-05-19T10:31:45.013Z,9.418202
2023-05-19T10:32:44.066Z,9.418365
2023-05-19T10:33:44.017Z,9.418289
2023-05-19T10:34:43.999Z,9.418190
2023-05-19T10:35:45.202Z,9.418281
2023-05-19T10:36:43.958Z,9.418333
2023-05-19T10:37:44.000Z,9.418343
2023-05-19T10:38:43.975Z,9.418327
2023-05-19T10:39:43.964Z,9.418305
2023-05-19T10:40:43.936Z,9.418334
2023-05-19T10:41:45.015Z,9.418386
2023-05-19T10:42:43.924Z,9.418430
2023-05-19T10:43:43.926Z,9.418364
2023-05-19T10:44:43.930Z,9.418357
2023-05-19T10:45:43.920Z,9.418324
2023-05-19T10:46:43.955Z,9.418330
2023-05-19T10:47:43.918Z,9.418314
2023-05-19T10:48:43.894Z,9.418337
2023-05-19T10:49:43.893Z,9.418339
2023-05-19T10:50:43.892Z,9.418284
2023-05-19T10:51:43.875Z,9.418277
2023-05-19T10:52:43.865Z,9.418350
2023-05-19T10:53:43.855Z,9.418322
2023-05-19T10:54:43.871Z,9.418177
2023-05-19T10:55:43.859Z,9.418250
2023-05-19T10:56:43.844Z,9.418244
2023-05-19T10:57:43.841Z,9.418346
2023-05-19T10:58:43.842Z,9.418294
2023-05-19T10:59:43.841Z,9.418406
2023-05-19T11:00:43.832Z,9.418419
2023-05-19T11:01:43.842Z,9.418388
2023-05-19T11:02:43.909Z,9.418346
2023-05-19T11:03:43.836Z,9.418322
2023-05-19T11:04:43.830Z,9.418230
2023-05-19T11:05:43.805Z,9.418245
2023-05-19T11:06:43.811Z,9.418236
2023-05-19T11:07:43.772Z,9.418205
2023-05-19T11:08:43.766Z,9.418281
2023-05-19T11:09:43.774Z,9.418267
2023-05-19T11:10:43.773Z,9.418320
2023-05-19T11:11:43.809Z,9.418265
2023-05-19T11:12:43.762Z,9.418285
2023-05-19T11:13:43.822Z,9.418265
2023-05-19T11:14:43.750Z,9.418308
2023-05-19T11:15:43.732Z,9.418268
2023-05-19T11:16:43.764Z,9.418297
2023-05-19T11:17:43.726Z,9.418274
2023-05-19T11:18:43.791Z,9.418261
2023-05-19T11:19:43.720Z,9.418265
2023-05-19T11:20:43.734Z,9.418256
2023-05-19T11:21:43.722Z,9.418217
2023-05-19T11:22:43.689Z,9.418256
2023-05-19T11:23:43.717Z,9.418301
2023-05-19T11:24:43.753Z,9.418206
2023-05-19T11:25:43.681Z,9.418261
2023-05-19T11:26:43.678Z,9.418301
2023-05-19T11:27:43.680Z,9.418312
2023-05-19T11:28:43.656Z,9.418312
2023-05-19T11:29:43.645Z,9.418300
2023-05-19T11:30:43.640Z,9.418288
2023-05-19T11:31:43.702Z,9.418175
2023-05-19T11:32:43.662Z,9.418169
2023-05-19T11:33:43.624Z,9.418196
2023-05-19T11:34:43.615Z,9.418256
2023-05-19T11:35:43.602Z,9.418312
2023-05-19T11:36:43.603Z,9.418304
2023-05-19T11:37:43.629Z,9.418293
2023-05-19T11:38:43.596Z,9.418290
2023-05-19T11:39:43.594Z,9.418363
2023-05-19T11:40:43.581Z,9.418382
2023-05-19T11:41:43.597Z,9.418262
2023-05-19T11:42:43.569Z,9.418278
2023-05-19T11:43:43.596Z,9.418247
2023-05-19T11:44:43.568Z,9.418261